sensor_id;sensor_type;location;lat;lon;timestamp;P1;durP1;ratioP1;P2;durP2;ratioP2
3155;SDS011;1588;50.892;7.082;2023-11-18T00:04:26;62.10;;;15.73;;
3155;SDS011;1588;50.892;7.082;2023-11-18T00:09:29;68.57;;;18.07;;
3155;SDS011;1588;50.892;7.082;2023-11-18T00:14:32;79.53;;;15.70;;
3155;SDS011;1588;50.892;7.082;2023-11-18T00:19:36;56.73;;;15.57;;
3155;SDS011;1588;50.892;7.082;2023-11-18T00:24:39;83.03;;;18.30;;
3155;SDS011;1588;50.892;7.082;2023-11-18T00:29:48;65.80;;;14.53;;
3155;SDS011;1588;50.892;7.082;2023-11-18T00:34:55;63.83;;;15.37;;
3155;SDS011;1588;50.892;7.082;2023-11-18T00:39:57;56.20;;;14.13;;
3155;SDS011;1588;50.892;7.082;2023-11-18T00:44:59;57.37;;;15.73;;
3155;SDS011;1588;50.892;7.082;2023-11-18T00:50:07;45.23;;;14.77;;
3155;SDS011;1588;50.892;7.082;2023-11-18T00:55:10;56.63;;;14.03;;
3155;SDS011;1588;50.892;7.082;2023-11-18T01:00:12;47.03;;;14.10;;
3155;SDS011;1588;50.892;7.082;2023-11-18T01:05:18;53.80;;;14.00;;
3155;SDS011;1588;50.892;7.082;2023-11-18T01:10:21;50.43;;;14.03;;
3155;SDS011;1588;50.892;7.082;2023-11-18T01:15:23;55.20;;;14.00;;
3155;SDS011;1588;50.892;7.082;2023-11-18T01:20:29;63.17;;;14.47;;
3155;SDS011;1588;50.892;7.082;2023-11-18T01:25:31;53.73;;;17.03;;
3155;SDS011;1588;50.892;7.082;2023-11-18T01:30:35;58.57;;;15.30;;
3155;SDS011;1588;50.892;7.082;2023-11-18T01:35:39;56.30;;;13.83;;
3155;SDS011;1588;50.892;7.082;2023-11-18T01:40:41;52.67;;;15.07;;
3155;SDS011;1588;50.892;7.082;2023-11-18T01:45:44;40.47;;;12.43;;
3155;SDS011;1588;50.892;7.082;2023-11-18T01:50:48;61.10;;;13.50;;
3155;SDS011;1588;50.892;7.082;2023-11-18T01:55:52;49.57;;;13.20;;
3155;SDS011;1588;50.892;7.082;2023-11-18T02:00:55;51.17;;;14.80;;
3155;SDS011;1588;50.892;7.082;2023-11-18T02:05:59;53.03;;;14.90;;
3155;SDS011;1588;50.892;7.082;2023-11-18T02:11:04;57.87;;;15.73;;
3155;SDS011;1588;50.892;7.082;2023-11-18T02:16:16;56.23;;;14.57;;
3155;SDS011;1588;50.892;7.082;2023-11-18T02:21:20;56.20;;;13.60;;
3155;SDS011;1588;50.892;7.082;2023-11-18T02:26:25;56.50;;;14.70;;
3155;SDS011;1588;50.892;7.082;2023-11-18T02:31:30;51.37;;;13.77;;
3155;SDS011;1588;50.892;7.082;2023-11-18T02:36:39;51.40;;;14.77;;
3155;SDS011;1588;50.892;7.082;2023-11-18T02:41:48;42.70;;;14.43;;
3155;SDS011;1588;50.892;7.082;2023-11-18T02:46:53;52.37;;;14.73;;
3155;SDS011;1588;50.892;7.082;2023-11-18T02:51:56;59.40;;;14.73;;
3155;SDS011;1588;50.892;7.082;2023-11-18T02:57:00;62.83;;;15.63;;
3155;SDS011;1588;50.892;7.082;2023-11-18T03:02:02;49.50;;;13.87;;
3155;SDS011;1588;50.892;7.082;2023-11-18T03:07:06;54.67;;;14.73;;
3155;SDS011;1588;50.892;7.082;2023-11-18T03:12:11;61.90;;;15.70;;
3155;SDS011;1588;50.892;7.082;2023-11-18T03:17:13;53.63;;;15.50;;
3155;SDS011;1588;50.892;7.082;2023-11-18T03:22:15;55.70;;;15.93;;
3155;SDS011;1588;50.892;7.082;2023-11-18T03:27:19;43.57;;;13.70;;
3155;SDS011;1588;50.892;7.082;2023-11-18T03:32:23;62.23;;;16.10;;
3155;SDS011;1588;50.892;7.082;2023-11-18T03:37:27;45.77;;;14.70;;
3155;SDS011;1588;50.892;7.082;2023-11-18T03:42:31;55.60;;;15.23;;
3155;SDS011;1588;50.892;7.082;2023-11-18T03:47:33;49.37;;;15.70;;
3155;SDS011;1588;50.892;7.082;2023-11-18T03:52:35;46.20;;;13.87;;
3155;SDS011;1588;50.892;7.082;2023-11-18T03:57:40;54.90;;;16.20;;
3155;SDS011;1588;50.892;7.082;2023-11-18T04:02:44;37.50;;;13.37;;
3155;SDS011;1588;50.892;7.082;2023-11-18T04:07:46;49.50;;;17.00;;
3155;SDS011;1588;50.892;7.082;2023-11-18T04:12:50;40.53;;;14.37;;
3155;SDS011;1588;50.892;7.082;2023-11-18T04:17:52;42.93;;;14.33;;
3155;SDS011;1588;50.892;7.082;2023-11-18T04:22:54;46.13;;;13.73;;
3155;SDS011;1588;50.892;7.082;2023-11-18T04:27:58;49.77;;;15.40;;
3155;SDS011;1588;50.892;7.082;2023-11-18T04:33:00;56.93;;;15.67;;
3155;SDS011;1588;50.892;7.082;2023-11-18T04:38:04;44.53;;;13.80;;
3155;SDS011;1588;50.892;7.082;2023-11-18T04:43:08;48.97;;;15.30;;
3155;SDS011;1588;50.892;7.082;2023-11-18T04:48:11;47.00;;;13.93;;
3155;SDS011;1588;50.892;7.082;2023-11-18T04:53:14;46.40;;;13.80;;
3155;SDS011;1588;50.892;7.082;2023-11-18T04:58:18;45.00;;;14.83;;
3155;SDS011;1588;50.892;7.082;2023-11-18T05:03:20;51.10;;;15.57;;
3155;SDS011;1588;50.892;7.082;2023-11-18T05:08:24;41.67;;;13.10;;
3155;SDS011;1588;50.892;7.082;2023-11-18T05:13:28;55.60;;;13.43;;
3155;SDS011;1588;50.892;7.082;2023-11-18T05:18:30;45.23;;;13.83;;
3155;SDS011;1588;50.892;7.082;2023-11-18T05:23:36;51.50;;;14.77;;
3155;SDS011;1588;50.892;7.082;2023-11-18T05:28:40;43.43;;;12.60;;
3155;SDS011;1588;50.892;7.082;2023-11-18T05:33:44;46.77;;;14.27;;
3155;SDS011;1588;50.892;7.082;2023-11-18T05:38:52;46.33;;;14.00;;
3155;SDS011;1588;50.892;7.082;2023-11-18T05:43:56;45.87;;;13.07;;
3155;SDS011;1588;50.892;7.082;2023-11-18T05:49:01;41.57;;;13.87;;
3155;SDS011;1588;50.892;7.082;2023-11-18T05:54:07;56.83;;;13.50;;
3155;SDS011;1588;50.892;7.082;2023-11-18T05:59:11;39.20;;;12.23;;
3155;SDS011;1588;50.892;7.082;2023-11-18T06:04:14;41.93;;;12.47;;
3155;SDS011;1588;50.892;7.082;2023-11-18T06:09:16;46.93;;;14.97;;
3155;SDS011;1588;50.892;7.082;2023-11-18T06:14:22;48.07;;;14.33;;
3155;SDS011;1588;50.892;7.082;2023-11-18T06:19:26;34.20;;;12.20;;
3155;SDS011;1588;50.892;7.082;2023-11-18T06:24:28;41.03;;;12.30;;
3155;SDS011;1588;50.892;7.082;2023-11-18T06:29:32;41.20;;;11.73;;
3155;SDS011;1588;50.892;7.082;2023-11-18T06:34:34;45.90;;;13.40;;
3155;SDS011;1588;50.892;7.082;2023-11-18T06:39:40;40.07;;;13.40;;
3155;SDS011;1588;50.892;7.082;2023-11-18T06:44:47;37.97;;;12.07;;
3155;SDS011;1588;50.892;7.082;2023-11-18T06:49:50;41.70;;;13.20;;
3155;SDS011;1588;50.892;7.082;2023-11-18T06:54:53;28.93;;;11.07;;
3155;SDS011;1588;50.892;7.082;2023-11-18T06:59:57;35.10;;;12.30;;
3155;SDS011;1588;50.892;7.082;2023-11-18T07:04:59;39.97;;;11.00;;
3155;SDS011;1588;50.892;7.082;2023-11-18T07:10:02;39.47;;;11.67;;
3155;SDS011;1588;50.892;7.082;2023-11-18T07:15:07;39.40;;;11.27;;
3155;SDS011;1588;50.892;7.082;2023-11-18T07:20:11;35.07;;;10.37;;
3155;SDS011;1588;50.892;7.082;2023-11-18T07:25:14;30.67;;;10.80;;
3155;SDS011;1588;50.892;7.082;2023-11-18T07:30:18;29.53;;;11.30;;
3155;SDS011;1588;50.892;7.082;2023-11-18T07:35:20;35.77;;;11.00;;
3155;SDS011;1588;50.892;7.082;2023-11-18T07:40:23;28.33;;;10.53;;
3155;SDS011;1588;50.892;7.082;2023-11-18T07:45:35;36.63;;;11.03;;
3155;SDS011;1588;50.892;7.082;2023-11-18T07:50:39;28.93;;;10.90;;
3155;SDS011;1588;50.892;7.082;2023-11-18T07:55:42;34.30;;;10.90;;
3155;SDS011;1588;50.892;7.082;2023-11-18T08:00:47;30.93;;;10.97;;
3155;SDS011;1588;50.892;7.082;2023-11-18T08:05:49;34.77;;;11.17;;
3155;SDS011;1588;50.892;7.082;2023-11-18T08:10:52;30.30;;;10.80;;
3155;SDS011;1588;50.892;7.082;2023-11-18T08:15:57;37.30;;;11.20;;
3155;SDS011;1588;50.892;7.082;2023-11-18T08:21:00;33.67;;;12.03;;
3155;SDS011;1588;50.892;7.082;2023-11-18T08:26:02;33.00;;;11.90;;
3155;SDS011;1588;50.892;7.082;2023-11-18T08:31:07;30.63;;;10.60;;
3155;SDS011;1588;50.892;7.082;2023-11-18T08:36:09;32.20;;;10.50;;
3155;SDS011;1588;50.892;7.082;2023-11-18T08:41:13;33.30;;;10.40;;
3155;SDS011;1588;50.892;7.082;2023-11-18T08:46:16;31.03;;;10.60;;
3155;SDS011;1588;50.892;7.082;2023-11-18T08:51:18;25.47;;;10.33;;
3155;SDS011;1588;50.892;7.082;2023-11-18T08:56:21;30.43;;;11.10;;
3155;SDS011;1588;50.892;7.082;2023-11-18T09:01:36;27.60;;;10.07;;
3155;SDS011;1588;50.892;7.082;2023-11-18T09:06:40;30.00;;;9.73;;
3155;SDS011;1588;50.892;7.082;2023-11-18T09:11:42;22.50;;;8.73;;
3155;SDS011;1588;50.892;7.082;2023-11-18T09:16:46;26.60;;;9.40;;
3155;SDS011;1588;50.892;7.082;2023-11-18T09:21:49;23.80;;;9.80;;
3155;SDS011;1588;50.892;7.082;2023-11-18T09:26:52;23.90;;;10.20;;
3155;SDS011;1588;50.892;7.082;2023-11-18T09:31:56;27.43;;;9.73;;
3155;SDS011;1588;50.892;7.082;2023-11-18T09:37:00;21.90;;;9.17;;
3155;SDS011;1588;50.892;7.082;2023-11-18T09:42:03;20.87;;;8.90;;
3155;SDS011;1588;50.892;7.082;2023-11-18T09:47:12;20.97;;;8.60;;
3155;SDS011;1588;50.892;7.082;2023-11-18T09:52:25;19.50;;;8.70;;
3155;SDS011;1588;50.892;7.082;2023-11-18T09:57:32;27.30;;;8.83;;
3155;SDS011;1588;50.892;7.082;2023-11-18T10:02:41;29.07;;;8.70;;
3155;SDS011;1588;50.892;7.082;2023-11-18T10:07:47;27.13;;;8.93;;
3155;SDS011;1588;50.892;7.082;2023-11-18T10:12:50;20.07;;;7.93;;
3155;SDS011;1588;50.892;7.082;2023-11-18T10:17:54;19.73;;;8.20;;
3155;SDS011;1588;50.892;7.082;2023-11-18T10:23:06;17.47;;;7.50;;
3155;SDS011;1588;50.892;7.082;2023-11-18T10:28:15;19.37;;;8.80;;
3155;SDS011;1588;50.892;7.082;2023-11-18T10:33:31;21.60;;;8.07;;
3155;SDS011;1588;50.892;7.082;2023-11-18T10:38:38;16.40;;;7.03;;
3155;SDS011;1588;50.892;7.082;2023-11-18T10:43:44;16.20;;;7.60;;
3155;SDS011;1588;50.892;7.082;2023-11-18T10:48:50;16.17;;;7.43;;
3155;SDS011;1588;50.892;7.082;2023-11-18T10:53:53;12.27;;;6.70;;
3155;SDS011;1588;50.892;7.082;2023-11-18T10:59:00;13.97;;;6.93;;
3155;SDS011;1588;50.892;7.082;2023-11-18T11:04:08;15.57;;;7.03;;
3155;SDS011;1588;50.892;7.082;2023-11-18T11:09:11;13.30;;;5.83;;
3155;SDS011;1588;50.892;7.082;2023-11-18T11:14:17;15.60;;;6.80;;
3155;SDS011;1588;50.892;7.082;2023-11-18T11:19:28;9.77;;;5.60;;
3155;SDS011;1588;50.892;7.082;2023-11-18T11:24:54;23.13;;;7.20;;
3155;SDS011;1588;50.892;7.082;2023-11-18T11:30:07;16.27;;;6.17;;
3155;SDS011;1588;50.892;7.082;2023-11-18T11:35:22;12.97;;;5.70;;
3155;SDS011;1588;50.892;7.082;2023-11-18T11:40:25;13.67;;;6.10;;
3155;SDS011;1588;50.892;7.082;2023-11-18T11:45:30;11.20;;;5.40;;
3155;SDS011;1588;50.892;7.082;2023-11-18T11:50:34;12.50;;;6.20;;
3155;SDS011;1588;50.892;7.082;2023-11-18T11:55:41;9.97;;;5.87;;
3155;SDS011;1588;50.892;7.082;2023-11-18T12:00:52;15.73;;;5.00;;
3155;SDS011;1588;50.892;7.082;2023-11-18T12:05:56;13.57;;;5.57;;
3155;SDS011;1588;50.892;7.082;2023-11-18T12:11:08;12.30;;;5.77;;
3155;SDS011;1588;50.892;7.082;2023-11-18T12:16:13;15.73;;;6.57;;
3155;SDS011;1588;50.892;7.082;2023-11-18T12:27:01;8.57;;;5.30;;
3155;SDS011;1588;50.892;7.082;2023-11-18T12:32:11;13.93;;;5.23;;
3155;SDS011;1588;50.892;7.082;2023-11-18T12:37:33;12.00;;;4.60;;
3155;SDS011;1588;50.892;7.082;2023-11-18T12:43:00;14.03;;;6.07;;
3155;SDS011;1588;50.892;7.082;2023-11-18T12:48:06;19.67;;;6.20;;
3155;SDS011;1588;50.892;7.082;2023-11-18T12:53:13;14.83;;;5.80;;
3155;SDS011;1588;50.892;7.082;2023-11-18T12:58:19;11.90;;;5.33;;
3155;SDS011;1588;50.892;7.082;2023-11-18T13:03:23;9.37;;;4.57;;
3155;SDS011;1588;50.892;7.082;2023-11-18T13:08:27;8.33;;;4.83;;
3155;SDS011;1588;50.892;7.082;2023-11-18T13:13:30;12.83;;;4.73;;
3155;SDS011;1588;50.892;7.082;2023-11-18T13:18:40;13.03;;;4.77;;
3155;SDS011;1588;50.892;7.082;2023-11-18T13:23:46;14.40;;;4.63;;
3155;SDS011;1588;50.892;7.082;2023-11-18T13:28:50;17.33;;;4.43;;
3155;SDS011;1588;50.892;7.082;2023-11-18T13:33:54;12.87;;;4.97;;
3155;SDS011;1588;50.892;7.082;2023-11-18T13:38:57;13.93;;;5.10;;
3155;SDS011;1588;50.892;7.082;2023-11-18T13:44:00;12.70;;;5.20;;
3155;SDS011;1588;50.892;7.082;2023-11-18T13:49:03;9.13;;;4.60;;
3155;SDS011;1588;50.892;7.082;2023-11-18T13:54:10;11.90;;;4.73;;
3155;SDS011;1588;50.892;7.082;2023-11-18T13:59:12;15.03;;;5.60;;
3155;SDS011;1588;50.892;7.082;2023-11-18T14:04:15;9.87;;;4.27;;
3155;SDS011;1588;50.892;7.082;2023-11-18T14:09:20;13.40;;;4.63;;
3155;SDS011;1588;50.892;7.082;2023-11-18T14:14:25;10.10;;;4.57;;
3155;SDS011;1588;50.892;7.082;2023-11-18T14:19:29;11.00;;;4.60;;
3155;SDS011;1588;50.892;7.082;2023-11-18T14:24:33;8.93;;;3.83;;
3155;SDS011;1588;50.892;7.082;2023-11-18T14:29:36;10.33;;;3.13;;
3155;SDS011;1588;50.892;7.082;2023-11-18T14:34:38;13.60;;;4.03;;
3155;SDS011;1588;50.892;7.082;2023-11-18T14:39:44;10.40;;;4.47;;
3155;SDS011;1588;50.892;7.082;2023-11-18T14:44:47;10.50;;;4.13;;
3155;SDS011;1588;50.892;7.082;2023-11-18T14:49:52;10.90;;;4.03;;
3155;SDS011;1588;50.892;7.082;2023-11-18T14:54:56;10.07;;;4.30;;
3155;SDS011;1588;50.892;7.082;2023-11-18T14:59:59;7.33;;;3.20;;
3155;SDS011;1588;50.892;7.082;2023-11-18T15:05:03;10.90;;;4.20;;
3155;SDS011;1588;50.892;7.082;2023-11-18T15:10:11;4.33;;;2.73;;
3155;SDS011;1588;50.892;7.082;2023-11-18T15:15:14;8.70;;;3.77;;
3155;SDS011;1588;50.892;7.082;2023-11-18T15:20:21;7.57;;;3.07;;
3155;SDS011;1588;50.892;7.082;2023-11-18T15:25:25;6.87;;;3.50;;
3155;SDS011;1588;50.892;7.082;2023-11-18T15:30:28;6.57;;;3.50;;
3155;SDS011;1588;50.892;7.082;2023-11-18T15:35:34;9.33;;;3.60;;
3155;SDS011;1588;50.892;7.082;2023-11-18T15:40:39;4.53;;;2.80;;
3155;SDS011;1588;50.892;7.082;2023-11-18T15:45:42;4.10;;;2.83;;
3155;SDS011;1588;50.892;7.082;2023-11-18T15:50:45;6.10;;;3.23;;
3155;SDS011;1588;50.892;7.082;2023-11-18T15:55:49;10.03;;;2.40;;
3155;SDS011;1588;50.892;7.082;2023-11-18T16:00:52;5.83;;;3.70;;
3155;SDS011;1588;50.892;7.082;2023-11-18T16:05:54;6.40;;;3.67;;
3155;SDS011;1588;50.892;7.082;2023-11-18T16:10:58;9.73;;;3.07;;
3155;SDS011;1588;50.892;7.082;2023-11-18T16:16:02;4.60;;;2.73;;
3155;SDS011;1588;50.892;7.082;2023-11-18T16:21:06;7.67;;;4.07;;
3155;SDS011;1588;50.892;7.082;2023-11-18T16:26:13;6.60;;;3.07;;
3155;SDS011;1588;50.892;7.082;2023-11-18T16:31:15;6.87;;;3.47;;
3155;SDS011;1588;50.892;7.082;2023-11-18T16:36:19;8.47;;;3.83;;
3155;SDS011;1588;50.892;7.082;2023-11-18T16:41:24;8.00;;;3.00;;
3155;SDS011;1588;50.892;7.082;2023-11-18T16:46:29;5.40;;;3.13;;
3155;SDS011;1588;50.892;7.082;2023-11-18T16:51:32;5.13;;;3.27;;
3155;SDS011;1588;50.892;7.082;2023-11-18T16:56:35;11.10;;;2.90;;
3155;SDS011;1588;50.892;7.082;2023-11-18T17:01:38;6.00;;;2.90;;
3155;SDS011;1588;50.892;7.082;2023-11-18T17:06:40;4.63;;;2.67;;
3155;SDS011;1588;50.892;7.082;2023-11-18T17:11:47;7.40;;;2.80;;
3155;SDS011;1588;50.892;7.082;2023-11-18T17:16:50;7.43;;;2.50;;
3155;SDS011;1588;50.892;7.082;2023-11-18T17:21:52;4.23;;;2.70;;
3155;SDS011;1588;50.892;7.082;2023-11-18T17:26:56;6.30;;;3.47;;
3155;SDS011;1588;50.892;7.082;2023-11-18T17:32:00;4.17;;;2.87;;
3155;SDS011;1588;50.892;7.082;2023-11-18T17:37:04;6.80;;;3.00;;
3155;SDS011;1588;50.892;7.082;2023-11-18T17:42:10;3.10;;;2.27;;
3155;SDS011;1588;50.892;7.082;2023-11-18T17:47:12;3.70;;;2.47;;
3155;SDS011;1588;50.892;7.082;2023-11-18T17:52:14;3.17;;;2.23;;
3155;SDS011;1588;50.892;7.082;2023-11-18T17:57:18;3.50;;;2.37;;
3155;SDS011;1588;50.892;7.082;2023-11-18T18:02:21;2.93;;;2.13;;
3155;SDS011;1588;50.892;7.082;2023-11-18T18:07:23;6.03;;;3.20;;
3155;SDS011;1588;50.892;7.082;2023-11-18T18:12:41;3.53;;;2.50;;
3155;SDS011;1588;50.892;7.082;2023-11-18T18:17:48;4.33;;;2.43;;
3155;SDS011;1588;50.892;7.082;2023-11-18T18:23:01;4.23;;;2.63;;
3155;SDS011;1588;50.892;7.082;2023-11-18T18:28:05;3.93;;;2.77;;
3155;SDS011;1588;50.892;7.082;2023-11-18T18:33:10;3.97;;;2.40;;
3155;SDS011;1588;50.892;7.082;2023-11-18T18:38:12;5.60;;;2.73;;
3155;SDS011;1588;50.892;7.082;2023-11-18T18:43:16;9.73;;;2.90;;
3155;SDS011;1588;50.892;7.082;2023-11-18T18:48:21;5.23;;;3.23;;
3155;SDS011;1588;50.892;7.082;2023-11-18T18:53:23;4.67;;;3.30;;
3155;SDS011;1588;50.892;7.082;2023-11-18T18:58:28;8.83;;;3.67;;
3155;SDS011;1588;50.892;7.082;2023-11-18T19:03:32;5.70;;;3.50;;
3155;SDS011;1588;50.892;7.082;2023-11-18T19:08:34;5.47;;;3.47;;
3155;SDS011;1588;50.892;7.082;2023-11-18T19:13:39;5.97;;;3.73;;
3155;SDS011;1588;50.892;7.082;2023-11-18T19:18:42;6.43;;;3.73;;
3155;SDS011;1588;50.892;7.082;2023-11-18T19:23:45;7.20;;;3.90;;
3155;SDS011;1588;50.892;7.082;2023-11-18T19:28:49;8.30;;;4.37;;
3155;SDS011;1588;50.892;7.082;2023-11-18T19:33:52;6.67;;;3.63;;
3155;SDS011;1588;50.892;7.082;2023-11-18T19:38:54;4.87;;;3.00;;
3155;SDS011;1588;50.892;7.082;2023-11-18T19:43:58;3.83;;;2.80;;
3155;SDS011;1588;50.892;7.082;2023-11-18T19:49:01;15.57;;;3.30;;
3155;SDS011;1588;50.892;7.082;2023-11-18T19:54:04;7.10;;;4.07;;
3155;SDS011;1588;50.892;7.082;2023-11-18T19:59:09;4.23;;;3.37;;
3155;SDS011;1588;50.892;7.082;2023-11-18T20:04:13;5.93;;;3.77;;
3155;SDS011;1588;50.892;7.082;2023-11-18T20:09:15;7.30;;;3.37;;
3155;SDS011;1588;50.892;7.082;2023-11-18T20:14:19;6.67;;;3.10;;
3155;SDS011;1588;50.892;7.082;2023-11-18T20:19:23;3.63;;;2.60;;
3155;SDS011;1588;50.892;7.082;2023-11-18T20:24:25;5.00;;;3.10;;
3155;SDS011;1588;50.892;7.082;2023-11-18T20:29:30;4.60;;;3.00;;
3155;SDS011;1588;50.892;7.082;2023-11-18T20:34:34;5.60;;;3.50;;
3155;SDS011;1588;50.892;7.082;2023-11-18T20:39:36;5.57;;;3.17;;
3155;SDS011;1588;50.892;7.082;2023-11-18T20:44:42;3.37;;;3.03;;
3155;SDS011;1588;50.892;7.082;2023-11-18T20:49:45;9.83;;;3.97;;
3155;SDS011;1588;50.892;7.082;2023-11-18T20:54:47;6.37;;;3.80;;
3155;SDS011;1588;50.892;7.082;2023-11-18T20:59:52;9.03;;;3.63;;
3155;SDS011;1588;50.892;7.082;2023-11-18T21:04:56;10.50;;;4.13;;
3155;SDS011;1588;50.892;7.082;2023-11-18T21:10:00;7.67;;;3.67;;
3155;SDS011;1588;50.892;7.082;2023-11-18T21:15:06;7.03;;;2.77;;
3155;SDS011;1588;50.892;7.082;2023-11-18T21:20:12;6.87;;;3.27;;
3155;SDS011;1588;50.892;7.082;2023-11-18T21:25:15;4.93;;;2.97;;
3155;SDS011;1588;50.892;7.082;2023-11-18T21:30:20;5.93;;;3.43;;
3155;SDS011;1588;50.892;7.082;2023-11-18T21:35:25;5.97;;;3.03;;
3155;SDS011;1588;50.892;7.082;2023-11-18T21:40:27;5.73;;;3.37;;
3155;SDS011;1588;50.892;7.082;2023-11-18T21:45:32;4.73;;;2.80;;
3155;SDS011;1588;50.892;7.082;2023-11-18T21:50:37;5.70;;;2.70;;
3155;SDS011;1588;50.892;7.082;2023-11-18T21:55:40;3.17;;;2.43;;
3155;SDS011;1588;50.892;7.082;2023-11-18T22:00:46;4.60;;;2.73;;
3155;SDS011;1588;50.892;7.082;2023-11-18T22:05:49;2.90;;;2.37;;
3155;SDS011;1588;50.892;7.082;2023-11-18T22:10:51;3.00;;;2.10;;
3155;SDS011;1588;50.892;7.082;2023-11-18T22:15:55;3.90;;;2.10;;
3155;SDS011;1588;50.892;7.082;2023-11-18T22:20:57;2.90;;;2.00;;
3155;SDS011;1588;50.892;7.082;2023-11-18T22:26:01;2.40;;;2.00;;
3155;SDS011;1588;50.892;7.082;2023-11-18T22:31:04;3.40;;;2.10;;
3155;SDS011;1588;50.892;7.082;2023-11-18T22:36:07;3.23;;;1.80;;
3155;SDS011;1588;50.892;7.082;2023-11-18T22:41:10;1.77;;;1.57;;
3155;SDS011;1588;50.892;7.082;2023-11-18T22:46:14;2.10;;;1.43;;
3155;SDS011;1588;50.892;7.082;2023-11-18T22:51:17;5.47;;;1.87;;
3155;SDS011;1588;50.892;7.082;2023-11-18T22:56:19;2.13;;;1.40;;
3155;SDS011;1588;50.892;7.082;2023-11-18T23:01:25;1.70;;;1.40;;
3155;SDS011;1588;50.892;7.082;2023-11-18T23:06:27;3.60;;;1.93;;
3155;SDS011;1588;50.892;7.082;2023-11-18T23:11:30;2.20;;;1.63;;
3155;SDS011;1588;50.892;7.082;2023-11-18T23:16:35;2.43;;;1.60;;
3155;SDS011;1588;50.892;7.082;2023-11-18T23:21:37;5.30;;;1.73;;
3155;SDS011;1588;50.892;7.082;2023-11-18T23:26:39;6.53;;;2.03;;
3155;SDS011;1588;50.892;7.082;2023-11-18T23:31:43;6.67;;;1.37;;
3155;SDS011;1588;50.892;7.082;2023-11-18T23:36:48;2.00;;;1.23;;
3155;SDS011;1588;50.892;7.082;2023-11-18T23:41:51;1.83;;;1.40;;
3155;SDS011;1588;50.892;7.082;2023-11-18T23:46:55;2.60;;;1.80;;
3155;SDS011;1588;50.892;7.082;2023-11-18T23:51:57;3.00;;;1.23;;
3155;SDS011;1588;50.892;7.082;2023-11-18T23:57:01;1.40;;;1.00;;
